sensor_id;sensor_type;location;lat;lon;timestamp;pressure;altitude;pressure_sealevel;temperature;humidity
70217;BME280;65567;55.684;37.570;2023-12-20T00:01:37;97385.09;;;7.08;89.84
70217;BME280;65567;55.684;37.570;2023-12-20T00:04:03;97389.88;;;7.02;89.19
70217;BME280;65567;55.684;37.570;2023-12-20T00:06:30;97392.94;;;6.81;90.80
70217;BME280;65567;55.684;37.570;2023-12-20T00:08:56;97385.69;;;6.86;89.79
70217;BME280;65567;55.684;37.570;2023-12-20T00:11:23;97392.03;;;6.82;89.17
70217;BME280;65567;55.684;37.570;2023-12-20T00:13:49;97386.28;;;6.77;91.10
70217;BME280;65567;55.684;37.570;2023-12-20T00:16:15;97397.38;;;6.93;90.21
70217;BME280;65567;55.684;37.570;2023-12-20T00:18:43;97387.78;;;6.94;88.84
70217;BME280;65567;55.684;37.570;2023-12-20T00:21:09;97399.22;;;6.91;89.53
70217;BME280;65567;55.684;37.570;2023-12-20T00:23:34;97407.34;;;6.87;90.01
70217;BME280;65567;55.684;37.570;2023-12-20T00:26:00;97405.34;;;6.90;89.83
70217;BME280;65567;55.684;37.570;2023-12-20T00:28:26;97400.47;;;6.86;91.01
70217;BME280;65567;55.684;37.570;2023-12-20T00:30:54;97399.28;;;6.77;91.55
70217;BME280;65567;55.684;37.570;2023-12-20T00:33:20;97397.53;;;6.90;91.28
70217;BME280;65567;55.684;37.570;2023-12-20T00:35:46;97395.56;;;6.81;92.61
70217;BME280;65567;55.684;37.570;2023-12-20T00:38:11;97400.94;;;7.05;89.81
70217;BME280;65567;55.684;37.570;2023-12-20T00:40:37;97393.31;;;6.89;91.81
70217;BME280;65567;55.684;37.570;2023-12-20T00:43:03;97407.78;;;6.93;93.04
70217;BME280;65567;55.684;37.570;2023-12-20T00:45:29;97415.06;;;6.88;93.90
70217;BME280;65567;55.684;37.570;2023-12-20T00:47:54;97408.72;;;6.65;95.11
70217;BME280;65567;55.684;37.570;2023-12-20T00:50:20;97417.25;;;6.94;93.39
70217;BME280;65567;55.684;37.570;2023-12-20T00:52:47;97405.09;;;7.08;90.71
70217;BME280;65567;55.684;37.570;2023-12-20T00:55:13;97412.81;;;7.09;91.19
70217;BME280;65567;55.684;37.570;2023-12-20T00:57:39;97396.09;;;6.86;93.15
70217;BME280;65567;55.684;37.570;2023-12-20T01:00:05;97393.19;;;6.91;92.10
70217;BME280;65567;55.684;37.570;2023-12-20T01:02:31;97394.94;;;6.90;91.79
70217;BME280;65567;55.684;37.570;2023-12-20T01:04:57;97402.22;;;6.85;92.96
70217;BME280;65567;55.684;37.570;2023-12-20T01:07:22;97396.94;;;6.87;93.17
70217;BME280;65567;55.684;37.570;2023-12-20T01:09:51;97387.59;;;7.10;90.36
70217;BME280;65567;55.684;37.570;2023-12-20T01:12:17;97404.28;;;7.20;89.87
70217;BME280;65567;55.684;37.570;2023-12-20T01:14:42;97343.84;;;6.89;90.98
70217;BME280;65567;55.684;37.570;2023-12-20T01:17:08;97378.22;;;7.20;91.22
70217;BME280;65567;55.684;37.570;2023-12-20T01:19:34;97381.66;;;7.08;91.47
70217;BME280;65567;55.684;37.570;2023-12-20T01:22:00;97374.56;;;7.10;91.22
70217;BME280;65567;55.684;37.570;2023-12-20T01:24:26;97364.38;;;7.20;89.55
70217;BME280;65567;55.684;37.570;2023-12-20T01:26:51;97379.06;;;7.08;90.10
70217;BME280;65567;55.684;37.570;2023-12-20T01:29:17;97381.88;;;7.18;88.30
70217;BME280;65567;55.684;37.570;2023-12-20T01:31:43;97378.00;;;6.98;89.68
70217;BME280;65567;55.684;37.570;2023-12-20T01:34:08;97376.34;;;6.97;88.75
70217;BME280;65567;55.684;37.570;2023-12-20T01:36:34;97395.63;;;7.07;87.21
70217;BME280;65567;55.684;37.570;2023-12-20T01:39:00;97384.47;;;7.05;88.28
70217;BME280;65567;55.684;37.570;2023-12-20T01:41:25;97379.03;;;6.95;89.60
70217;BME280;65567;55.684;37.570;2023-12-20T01:43:51;97376.03;;;7.01;89.35
70217;BME280;65567;55.684;37.570;2023-12-20T01:46:19;97369.81;;;7.17;88.32
70217;BME280;65567;55.684;37.570;2023-12-20T01:48:45;97366.22;;;7.05;88.59
70217;BME280;65567;55.684;37.570;2023-12-20T01:51:11;97356.53;;;6.81;89.90
70217;BME280;65567;55.684;37.570;2023-12-20T01:53:38;97348.09;;;6.90;90.51
70217;BME280;65567;55.684;37.570;2023-12-20T01:56:04;97349.69;;;7.06;88.26
70217;BME280;65567;55.684;37.570;2023-12-20T01:58:30;97343.56;;;7.07;86.92
70217;BME280;65567;55.684;37.570;2023-12-20T02:00:57;97352.38;;;6.91;88.67
70217;BME280;65567;55.684;37.570;2023-12-20T02:03:23;97352.19;;;6.94;87.77
70217;BME280;65567;55.684;37.570;2023-12-20T02:05:50;97354.69;;;7.09;86.83
70217;BME280;65567;55.684;37.570;2023-12-20T02:08:15;97364.25;;;6.95;88.40
70217;BME280;65567;55.684;37.570;2023-12-20T02:10:41;97371.53;;;6.90;89.92
70217;BME280;65567;55.684;37.570;2023-12-20T02:13:07;97353.31;;;6.90;88.53
70217;BME280;65567;55.684;37.570;2023-12-20T02:15:33;97363.44;;;6.95;88.74
70217;BME280;65567;55.684;37.570;2023-12-20T02:17:59;97353.88;;;7.21;85.88
70217;BME280;65567;55.684;37.570;2023-12-20T02:20:28;97337.19;;;7.11;86.13
70217;BME280;65567;55.684;37.570;2023-12-20T02:22:53;97319.59;;;7.02;86.31
70217;BME280;65567;55.684;37.570;2023-12-20T02:25:19;97338.34;;;7.20;83.99
70217;BME280;65567;55.684;37.570;2023-12-20T02:27:45;97322.59;;;6.95;86.13
70217;BME280;65567;55.684;37.570;2023-12-20T02:30:11;97342.19;;;7.01;87.57
70217;BME280;65567;55.684;37.570;2023-12-20T02:32:37;97329.59;;;6.95;88.14
70217;BME280;65567;55.684;37.570;2023-12-20T02:35:03;97337.72;;;7.16;85.73
70217;BME280;65567;55.684;37.570;2023-12-20T02:37:29;97332.19;;;7.08;85.97
70217;BME280;65567;55.684;37.570;2023-12-20T02:39:58;97340.75;;;6.97;86.97
70217;BME280;65567;55.684;37.570;2023-12-20T02:42:23;97305.44;;;6.53;89.84
70217;BME280;65567;55.684;37.570;2023-12-20T02:44:49;97352.38;;;6.91;88.41
70217;BME280;65567;55.684;37.570;2023-12-20T02:47:15;97348.72;;;6.94;88.37
70217;BME280;65567;55.684;37.570;2023-12-20T02:49:40;97343.25;;;6.99;87.58
70217;BME280;65567;55.684;37.570;2023-12-20T02:52:06;97351.97;;;6.98;87.26
70217;BME280;65567;55.684;37.570;2023-12-20T02:54:32;97338.22;;;6.95;88.17
70217;BME280;65567;55.684;37.570;2023-12-20T02:56:57;97336.56;;;7.07;87.78
70217;BME280;65567;55.684;37.570;2023-12-20T02:59:23;97337.28;;;6.97;88.84
70217;BME280;65567;55.684;37.570;2023-12-20T03:01:49;97344.03;;;6.86;89.63
70217;BME280;65567;55.684;37.570;2023-12-20T03:04:14;97338.13;;;6.84;89.15
70217;BME280;65567;55.684;37.570;2023-12-20T03:06:40;97307.38;;;6.64;89.75
70217;BME280;65567;55.684;37.570;2023-12-20T03:09:05;97329.41;;;6.58;91.01
70217;BME280;65567;55.684;37.570;2023-12-20T03:11:31;97325.00;;;6.86;89.77
70217;BME280;65567;55.684;37.570;2023-12-20T03:13:57;97289.03;;;6.52;90.11
70217;BME280;65567;55.684;37.570;2023-12-20T03:16:23;97341.78;;;6.54;91.48
70217;BME280;65567;55.684;37.570;2023-12-20T03:18:49;97339.03;;;6.83;89.99
70217;BME280;65567;55.684;37.570;2023-12-20T03:21:15;97327.38;;;6.76;88.52
70217;BME280;65567;55.684;37.570;2023-12-20T03:23:41;97322.22;;;6.61;89.46
70217;BME280;65567;55.684;37.570;2023-12-20T03:26:07;97308.81;;;6.55;89.40
70217;BME280;65567;55.684;37.570;2023-12-20T03:28:34;97293.16;;;6.42;90.13
70217;BME280;65567;55.684;37.570;2023-12-20T03:31:00;97336.31;;;6.72;90.71
70217;BME280;65567;55.684;37.570;2023-12-20T03:33:27;97336.56;;;6.82;89.86
70217;BME280;65567;55.684;37.570;2023-12-20T03:35:53;97342.81;;;6.92;89.27
70217;BME280;65567;55.684;37.570;2023-12-20T03:38:20;97331.09;;;6.72;90.37
70217;BME280;65567;55.684;37.570;2023-12-20T03:40:46;97334.56;;;6.85;89.89
70217;BME280;65567;55.684;37.570;2023-12-20T03:43:12;97330.16;;;6.60;91.05
70217;BME280;65567;55.684;37.570;2023-12-20T03:45:37;97332.06;;;6.43;91.80
70217;BME280;65567;55.684;37.570;2023-12-20T03:48:03;97326.16;;;6.14;93.70
70217;BME280;65567;55.684;37.570;2023-12-20T03:50:29;97335.34;;;5.91;96.11
70217;BME280;65567;55.684;37.570;2023-12-20T03:52:55;97300.28;;;6.25;91.27
70217;BME280;65567;55.684;37.570;2023-12-20T03:55:20;97334.59;;;6.45;91.12
70217;BME280;65567;55.684;37.570;2023-12-20T03:57:46;97322.94;;;6.51;92.17
70217;BME280;65567;55.684;37.570;2023-12-20T04:00:12;97344.66;;;6.77;90.67
70217;BME280;65567;55.684;37.570;2023-12-20T04:02:39;97342.16;;;6.75;90.76
70217;BME280;65567;55.684;37.570;2023-12-20T04:05:06;97343.53;;;6.94;89.40
70217;BME280;65567;55.684;37.570;2023-12-20T04:07:32;97347.19;;;7.04;88.33
70217;BME280;65567;55.684;37.570;2023-12-20T04:09:58;97313.34;;;6.91;88.27
70217;BME280;65567;55.684;37.570;2023-12-20T04:12:24;97335.53;;;6.97;88.44
70217;BME280;65567;55.684;37.570;2023-12-20T04:14:49;97357.25;;;6.83;89.36
70217;BME280;65567;55.684;37.570;2023-12-20T04:17:16;97336.94;;;6.75;88.38
70217;BME280;65567;55.684;37.570;2023-12-20T04:19:42;97345.72;;;6.87;89.94
70217;BME280;65567;55.684;37.570;2023-12-20T04:22:08;97347.31;;;6.63;91.58
70217;BME280;65567;55.684;37.570;2023-12-20T04:24:34;97341.94;;;6.78;90.78
70217;BME280;65567;55.684;37.570;2023-12-20T04:27:00;97350.09;;;6.87;88.82
70217;BME280;65567;55.684;37.570;2023-12-20T04:29:25;97349.75;;;6.78;90.51
70217;BME280;65567;55.684;37.570;2023-12-20T04:31:51;97365.50;;;6.90;88.88
70217;BME280;65567;55.684;37.570;2023-12-20T04:34:17;97354.00;;;6.67;90.13
70217;BME280;65567;55.684;37.570;2023-12-20T04:36:43;97372.13;;;6.81;89.73
70217;BME280;65567;55.684;37.570;2023-12-20T04:39:10;97344.56;;;6.51;91.83
70217;BME280;65567;55.684;37.570;2023-12-20T04:41:35;97368.97;;;6.63;90.70
70217;BME280;65567;55.684;37.570;2023-12-20T04:44:01;97368.69;;;6.40;92.46
70217;BME280;65567;55.684;37.570;2023-12-20T04:46:27;97369.16;;;6.60;90.78
70217;BME280;65567;55.684;37.570;2023-12-20T04:48:53;97351.25;;;6.55;89.27
70217;BME280;65567;55.684;37.570;2023-12-20T04:51:18;97321.06;;;6.40;90.50
70217;BME280;65567;55.684;37.570;2023-12-20T04:53:44;97362.31;;;6.72;89.32
70217;BME280;65567;55.684;37.570;2023-12-20T04:56:10;97368.09;;;6.90;87.87
70217;BME280;65567;55.684;37.570;2023-12-20T04:58:36;97362.69;;;7.06;86.21
70217;BME280;65567;55.684;37.570;2023-12-20T05:01:02;97364.91;;;7.25;84.12
70217;BME280;65567;55.684;37.570;2023-12-20T05:03:28;97361.69;;;7.21;82.34
70217;BME280;65567;55.684;37.570;2023-12-20T05:05:54;97370.31;;;7.09;81.90
70217;BME280;65567;55.684;37.570;2023-12-20T05:08:19;97379.47;;;7.02;82.24
70217;BME280;65567;55.684;37.570;2023-12-20T05:10:45;97369.44;;;6.95;82.21
70217;BME280;65567;55.684;37.570;2023-12-20T05:13:11;97375.09;;;6.89;82.85
70217;BME280;65567;55.684;37.570;2023-12-20T05:15:37;97372.53;;;6.75;82.88
70217;BME280;65567;55.684;37.570;2023-12-20T05:18:03;97370.34;;;6.69;83.05
70217;BME280;65567;55.684;37.570;2023-12-20T05:20:29;97362.31;;;6.72;82.75
70217;BME280;65567;55.684;37.570;2023-12-20T05:22:54;97373.72;;;6.56;85.10
70217;BME280;65567;55.684;37.570;2023-12-20T05:25:20;97373.78;;;6.69;83.70
70217;BME280;65567;55.684;37.570;2023-12-20T05:27:46;97378.59;;;6.75;82.52
70217;BME280;65567;55.684;37.570;2023-12-20T05:30:12;97369.81;;;6.64;83.86
70217;BME280;65567;55.684;37.570;2023-12-20T05:32:38;97370.19;;;6.57;84.24
70217;BME280;65567;55.684;37.570;2023-12-20T05:35:04;97378.75;;;6.59;84.05
70217;BME280;65567;55.684;37.570;2023-12-20T05:37:30;97379.91;;;6.68;83.13
70217;BME280;65567;55.684;37.570;2023-12-20T05:39:55;97386.25;;;6.64;83.91
70217;BME280;65567;55.684;37.570;2023-12-20T05:42:21;97380.41;;;6.60;83.92
70217;BME280;65567;55.684;37.570;2023-12-20T05:44:46;97383.59;;;6.51;85.34
70217;BME280;65567;55.684;37.570;2023-12-20T05:47:12;97386.94;;;6.53;85.16
70217;BME280;65567;55.684;37.570;2023-12-20T05:49:38;97387.66;;;6.55;85.28
70217;BME280;65567;55.684;37.570;2023-12-20T05:52:03;97402.44;;;6.55;85.01
70217;BME280;65567;55.684;37.570;2023-12-20T05:54:29;97394.75;;;6.53;85.45
70217;BME280;65567;55.684;37.570;2023-12-20T05:56:56;97384.78;;;6.33;87.49
70217;BME280;65567;55.684;37.570;2023-12-20T05:59:24;97382.22;;;6.18;88.82
70217;BME280;65567;55.684;37.570;2023-12-20T06:01:50;97391.69;;;6.19;89.69
70217;BME280;65567;55.684;37.570;2023-12-20T06:04:15;97382.13;;;6.47;87.11
70217;BME280;65567;55.684;37.570;2023-12-20T06:06:44;97396.97;;;6.59;86.04
70217;BME280;65567;55.684;37.570;2023-12-20T06:09:10;97401.03;;;6.64;86.17
70217;BME280;65567;55.684;37.570;2023-12-20T06:11:36;97398.59;;;6.60;86.33
70217;BME280;65567;55.684;37.570;2023-12-20T06:14:02;97407.66;;;6.55;86.83
70217;BME280;65567;55.684;37.570;2023-12-20T06:16:28;97412.25;;;6.64;86.43
70217;BME280;65567;55.684;37.570;2023-12-20T06:18:54;97406.03;;;6.67;86.18
70217;BME280;65567;55.684;37.570;2023-12-20T06:21:19;97405.84;;;6.70;85.84
70217;BME280;65567;55.684;37.570;2023-12-20T06:23:45;97410.19;;;6.69;85.54
70217;BME280;65567;55.684;37.570;2023-12-20T06:26:11;97396.16;;;6.72;85.17
70217;BME280;65567;55.684;37.570;2023-12-20T06:28:36;97399.41;;;6.75;84.66
70217;BME280;65567;55.684;37.570;2023-12-20T06:31:02;97399.25;;;6.64;85.73
70217;BME280;65567;55.684;37.570;2023-12-20T06:33:28;97408.56;;;6.81;84.53
70217;BME280;65567;55.684;37.570;2023-12-20T06:35:56;97379.72;;;6.44;86.53
70217;BME280;65567;55.684;37.570;2023-12-20T06:38:22;97403.25;;;6.55;87.06
70217;BME280;65567;55.684;37.570;2023-12-20T06:40:47;97399.09;;;6.80;85.15
70217;BME280;65567;55.684;37.570;2023-12-20T06:43:13;97400.69;;;6.95;83.98
70217;BME280;65567;55.684;37.570;2023-12-20T06:45:39;97407.25;;;6.88;84.31
70217;BME280;65567;55.684;37.570;2023-12-20T06:48:05;97420.09;;;6.77;84.86
70217;BME280;65567;55.684;37.570;2023-12-20T06:50:34;97402.50;;;7.08;83.39
70217;BME280;65567;55.684;37.570;2023-12-20T06:52:59;97401.59;;;7.22;81.43
70217;BME280;65567;55.684;37.570;2023-12-20T06:55:25;97409.25;;;6.98;83.95
70217;BME280;65567;55.684;37.570;2023-12-20T06:57:51;97406.28;;;7.30;81.92
70217;BME280;65567;55.684;37.570;2023-12-20T07:00:17;97404.53;;;7.43;81.12
70217;BME280;65567;55.684;37.570;2023-12-20T07:02:45;97403.88;;;7.52;80.15
70217;BME280;65567;55.684;37.570;2023-12-20T07:05:15;97403.97;;;7.25;83.62
70217;BME280;65567;55.684;37.570;2023-12-20T07:07:44;97404.81;;;7.51;80.85
70217;BME280;65567;55.684;37.570;2023-12-20T07:10:10;97403.22;;;7.10;84.49
70217;BME280;65567;55.684;37.570;2023-12-20T07:12:36;97409.59;;;7.32;82.87
70217;BME280;65567;55.684;37.570;2023-12-20T07:15:02;97407.63;;;7.35;83.14
70217;BME280;65567;55.684;37.570;2023-12-20T07:17:37;97404.91;;;7.37;82.95
70217;BME280;65567;55.684;37.570;2023-12-20T07:20:06;97411.28;;;7.58;81.50
70217;BME280;65567;55.684;37.570;2023-12-20T07:22:36;97402.53;;;7.47;82.20
70217;BME280;65567;55.684;37.570;2023-12-20T07:25:02;97375.75;;;7.32;82.89
70217;BME280;65567;55.684;37.570;2023-12-20T07:27:27;97421.19;;;7.40;83.57
70217;BME280;65567;55.684;37.570;2023-12-20T07:29:53;97408.28;;;7.39;83.06
70217;BME280;65567;55.684;37.570;2023-12-20T07:32:19;97413.25;;;7.42;82.96
70217;BME280;65567;55.684;37.570;2023-12-20T07:34:44;97409.06;;;7.26;83.92
70217;BME280;65567;55.684;37.570;2023-12-20T07:37:10;97425.66;;;7.51;81.66
70217;BME280;65567;55.684;37.570;2023-12-20T07:39:40;97425.44;;;7.28;83.90
70217;BME280;65567;55.684;37.570;2023-12-20T07:42:06;97425.22;;;7.32;83.19
70217;BME280;65567;55.684;37.570;2023-12-20T07:44:32;97439.09;;;7.32;83.29
70217;BME280;65567;55.684;37.570;2023-12-20T07:46:58;97425.88;;;7.48;81.98
70217;BME280;65567;55.684;37.570;2023-12-20T07:49:24;97434.09;;;7.29;84.16
70217;BME280;65567;55.684;37.570;2023-12-20T07:51:50;97430.22;;;7.09;84.84
70217;BME280;65567;55.684;37.570;2023-12-20T07:54:16;97430.91;;;7.11;84.13
70217;BME280;65567;55.684;37.570;2023-12-20T07:56:42;97420.50;;;7.11;83.33
70217;BME280;65567;55.684;37.570;2023-12-20T07:59:07;97442.75;;;7.30;82.06
70217;BME280;65567;55.684;37.570;2023-12-20T08:01:33;97439.97;;;7.58;81.00
70217;BME280;65567;55.684;37.570;2023-12-20T08:03:58;97446.31;;;7.80;79.10
70217;BME280;65567;55.684;37.570;2023-12-20T08:06:24;97450.16;;;7.87;78.00
70217;BME280;65567;55.684;37.570;2023-12-20T08:08:50;97441.53;;;7.87;77.59
70217;BME280;65567;55.684;37.570;2023-12-20T08:11:15;97441.50;;;7.48;80.21
70217;BME280;65567;55.684;37.570;2023-12-20T08:13:41;97441.81;;;7.69;79.42
70217;BME280;65567;55.684;37.570;2023-12-20T08:16:09;97433.28;;;7.54;81.14
70217;BME280;65567;55.684;37.570;2023-12-20T08:18:35;97453.72;;;7.73;80.11
70217;BME280;65567;55.684;37.570;2023-12-20T08:21:01;97440.69;;;7.86;77.25
70217;BME280;65567;55.684;37.570;2023-12-20T08:23:27;97419.94;;;7.72;77.27
70217;BME280;65567;55.684;37.570;2023-12-20T08:25:53;97440.03;;;7.70;78.93
70217;BME280;65567;55.684;37.570;2023-12-20T08:28:18;97439.53;;;7.65;80.30
70217;BME280;65567;55.684;37.570;2023-12-20T08:30:44;97448.59;;;7.72;80.14
70217;BME280;65567;55.684;37.570;2023-12-20T08:33:10;97444.31;;;7.84;79.38
70217;BME280;65567;55.684;37.570;2023-12-20T08:35:39;97442.75;;;7.81;79.44
70217;BME280;65567;55.684;37.570;2023-12-20T08:38:05;97434.00;;;7.82;78.73
70217;BME280;65567;55.684;37.570;2023-12-20T08:40:31;97430.47;;;7.83;79.42
70217;BME280;65567;55.684;37.570;2023-12-20T08:43:00;97424.75;;;7.65;80.16
70217;BME280;65567;55.684;37.570;2023-12-20T08:45:25;97442.25;;;7.76;80.66
70217;BME280;65567;55.684;37.570;2023-12-20T08:47:51;97444.66;;;7.92;78.50
70217;BME280;65567;55.684;37.570;2023-12-20T08:50:16;97438.81;;;7.88;78.30
70217;BME280;65567;55.684;37.570;2023-12-20T08:52:42;97427.13;;;7.81;80.68
70217;BME280;65567;55.684;37.570;2023-12-20T08:55:08;97434.22;;;7.92;80.37
70217;BME280;65567;55.684;37.570;2023-12-20T08:57:35;97401.16;;;7.80;78.65
70217;BME280;65567;55.684;37.570;2023-12-20T09:00:02;97427.22;;;7.92;79.38
70217;BME280;65567;55.684;37.570;2023-12-20T09:02:28;97435.56;;;7.98;78.84
70217;BME280;65567;55.684;37.570;2023-12-20T09:04:54;97415.97;;;7.53;82.32
70217;BME280;65567;55.684;37.570;2023-12-20T09:07:24;97433.19;;;7.82;81.03
70217;BME280;65567;55.684;37.570;2023-12-20T09:09:53;97433.59;;;7.75;81.75
70217;BME280;65567;55.684;37.570;2023-12-20T09:12:20;97418.06;;;7.74;81.85
70217;BME280;65567;55.684;37.570;2023-12-20T09:14:47;97427.13;;;7.81;81.69
70217;BME280;65567;55.684;37.570;2023-12-20T09:17:16;97426.81;;;7.86;81.35
70217;BME280;65567;55.684;37.570;2023-12-20T09:19:42;97432.31;;;7.94;81.52
70217;BME280;65567;55.684;37.570;2023-12-20T09:22:12;97422.94;;;7.66;83.32
70217;BME280;65567;55.684;37.570;2023-12-20T09:24:38;97424.59;;;7.28;86.60
70217;BME280;65567;55.684;37.570;2023-12-20T09:27:06;97419.94;;;7.46;85.21
70217;BME280;65567;55.684;37.570;2023-12-20T09:29:32;97439.31;;;7.42;85.39
70217;BME280;65567;55.684;37.570;2023-12-20T09:31:58;97424.50;;;7.68;82.92
70217;BME280;65567;55.684;37.570;2023-12-20T09:34:24;97415.56;;;7.59;84.42
70217;BME280;65567;55.684;37.570;2023-12-20T09:36:51;97417.66;;;7.54;85.19
70217;BME280;65567;55.684;37.570;2023-12-20T09:39:18;97411.28;;;7.58;83.85
70217;BME280;65567;55.684;37.570;2023-12-20T09:42:07;97409.50;;;7.46;85.54
70217;BME280;65567;55.684;37.570;2023-12-20T09:44:33;97407.03;;;7.57;85.26
70217;BME280;65567;55.684;37.570;2023-12-20T09:47:10;97402.84;;;7.55;85.28
70217;BME280;65567;55.684;37.570;2023-12-20T09:49:46;97391.91;;;7.75;83.19
70217;BME280;65567;55.684;37.570;2023-12-20T09:52:15;97399.50;;;7.53;85.25
70217;BME280;65567;55.684;37.570;2023-12-20T09:54:43;97397.75;;;7.40;86.25
70217;BME280;65567;55.684;37.570;2023-12-20T09:57:09;97411.28;;;7.71;84.07
70217;BME280;65567;55.684;37.570;2023-12-20T09:59:38;97400.25;;;7.68;83.19
70217;BME280;65567;55.684;37.570;2023-12-20T10:02:11;97418.25;;;7.71;84.50
70217;BME280;65567;55.684;37.570;2023-12-20T10:04:39;97424.09;;;7.87;82.31
70217;BME280;65567;55.684;37.570;2023-12-20T10:07:10;97418.06;;;7.74;84.37
70217;BME280;65567;55.684;37.570;2023-12-20T10:09:35;97415.47;;;7.74;84.54
70217;BME280;65567;55.684;37.570;2023-12-20T10:12:01;97417.03;;;7.89;83.14
70217;BME280;65567;55.684;37.570;2023-12-20T10:14:27;97407.25;;;7.54;85.19
70217;BME280;65567;55.684;37.570;2023-12-20T10:16:52;97404.72;;;7.66;83.86
70217;BME280;65567;55.684;37.570;2023-12-20T10:19:19;97414.72;;;7.85;82.97
70217;BME280;65567;55.684;37.570;2023-12-20T10:21:45;97436.63;;;7.82;84.58
70217;BME280;65567;55.684;37.570;2023-12-20T10:24:17;97424.41;;;7.70;84.95
70217;BME280;65567;55.684;37.570;2023-12-20T10:26:43;97424.41;;;7.96;81.34
70217;BME280;65567;55.684;37.570;2023-12-20T10:29:09;97433.59;;;8.01;80.26
70217;BME280;65567;55.684;37.570;2023-12-20T10:31:35;97437.00;;;8.02;80.01
70217;BME280;65567;55.684;37.570;2023-12-20T10:34:02;97433.38;;;7.91;82.13
70217;BME280;65567;55.684;37.570;2023-12-20T10:36:30;97418.25;;;7.58;83.96
70217;BME280;65567;55.684;37.570;2023-12-20T10:38:57;97428.91;;;7.81;82.44
70217;BME280;65567;55.684;37.570;2023-12-20T10:41:29;97427.44;;;7.89;83.12
70217;BME280;65567;55.684;37.570;2023-12-20T10:44:04;97434.19;;;8.05;80.73
70217;BME280;65567;55.684;37.570;2023-12-20T10:46:33;97434.41;;;8.02;79.91
70217;BME280;65567;55.684;37.570;2023-12-20T10:48:59;97407.00;;;7.83;81.04
70217;BME280;65567;55.684;37.570;2023-12-20T10:51:27;97419.41;;;7.67;83.29
70217;BME280;65567;55.684;37.570;2023-12-20T10:53:55;97426.81;;;7.60;84.75
70217;BME280;65567;55.684;37.570;2023-12-20T10:56:21;97426.41;;;7.66;83.97
70217;BME280;65567;55.684;37.570;2023-12-20T10:58:51;97431.00;;;7.75;81.41
70217;BME280;65567;55.684;37.570;2023-12-20T11:01:23;97438.91;;;7.74;81.93
70217;BME280;65567;55.684;37.570;2023-12-20T11:03:53;97439.44;;;7.79;82.85
70217;BME280;65567;55.684;37.570;2023-12-20T11:09:25;97433.72;;;7.61;83.71
70217;BME280;65567;55.684;37.570;2023-12-20T11:14:46;97435.69;;;7.83;83.28
70217;BME280;65567;55.684;37.570;2023-12-20T11:17:13;97442.47;;;7.73;83.53
70217;BME280;65567;55.684;37.570;2023-12-20T11:22:35;97451.22;;;7.59;85.37
70217;BME280;65567;55.684;37.570;2023-12-20T11:25:05;97435.78;;;7.69;83.58
70217;BME280;65567;55.684;37.570;2023-12-20T11:27:41;97444.53;;;7.42;85.50
70217;BME280;65567;55.684;37.570;2023-12-20T11:30:11;97450.56;;;7.55;85.58
70217;BME280;65567;55.684;37.570;2023-12-20T11:32:37;97446.22;;;7.82;82.85
70217;BME280;65567;55.684;37.570;2023-12-20T11:37:35;97442.22;;;8.02;81.32
70217;BME280;65567;55.684;37.570;2023-12-20T11:40:22;97439.63;;;7.63;85.34
70217;BME280;65567;55.684;37.570;2023-12-20T11:42:51;97411.38;;;7.70;82.98
70217;BME280;65567;55.684;37.570;2023-12-20T11:45:24;97435.56;;;7.85;83.24
70217;BME280;65567;55.684;37.570;2023-12-20T11:47:51;97438.41;;;7.69;84.78
70217;BME280;65567;55.684;37.570;2023-12-20T11:50:20;97430.59;;;7.69;83.12
70217;BME280;65567;55.684;37.570;2023-12-20T11:52:47;97432.44;;;7.67;84.40
70217;BME280;65567;55.684;37.570;2023-12-20T11:55:13;97437.34;;;7.71;84.62
70217;BME280;65567;55.684;37.570;2023-12-20T11:57:39;97410.78;;;7.66;83.59
70217;BME280;65567;55.684;37.570;2023-12-20T12:00:05;97411.59;;;7.41;85.85
70217;BME280;65567;55.684;37.570;2023-12-20T12:02:31;97434.53;;;7.74;84.86
70217;BME280;65567;55.684;37.570;2023-12-20T12:04:59;97433.72;;;7.61;85.39
70217;BME280;65567;55.684;37.570;2023-12-20T12:07:25;97442.97;;;7.78;84.13
70217;BME280;65567;55.684;37.570;2023-12-20T12:09:51;97443.81;;;7.66;85.81
70217;BME280;65567;55.684;37.570;2023-12-20T12:12:17;97428.28;;;7.51;86.06
70217;BME280;65567;55.684;37.570;2023-12-20T12:14:45;97435.97;;;7.66;85.77
70217;BME280;65567;55.684;37.570;2023-12-20T12:17:12;97450.03;;;7.50;86.35
70217;BME280;65567;55.684;37.570;2023-12-20T12:19:39;97448.69;;;7.44;86.39
70217;BME280;65567;55.684;37.570;2023-12-20T12:22:09;97444.75;;;7.39;86.46
70217;BME280;65567;55.684;37.570;2023-12-20T12:24:46;97421.81;;;7.31;85.47
70217;BME280;65567;55.684;37.570;2023-12-20T12:27:12;97433.47;;;7.38;85.97
70217;BME280;65567;55.684;37.570;2023-12-20T12:29:38;97451.72;;;7.51;85.81
70217;BME280;65567;55.684;37.570;2023-12-20T12:32:06;97459.63;;;7.37;86.21
70217;BME280;65567;55.684;37.570;2023-12-20T12:34:33;97450.56;;;7.30;87.49
70217;BME280;65567;55.684;37.570;2023-12-20T12:37:00;97453.25;;;7.41;86.40
70217;BME280;65567;55.684;37.570;2023-12-20T12:39:26;97454.50;;;7.22;88.11
70217;BME280;65567;55.684;37.570;2023-12-20T12:41:52;97445.31;;;7.17;87.46
70217;BME280;65567;55.684;37.570;2023-12-20T12:44:18;97455.56;;;7.33;86.03
70217;BME280;65567;55.684;37.570;2023-12-20T12:46:47;97476.59;;;7.30;86.19
70217;BME280;65567;55.684;37.570;2023-12-20T12:49:15;97458.53;;;7.14;87.37
70217;BME280;65567;55.684;37.570;2023-12-20T12:51:41;97464.91;;;7.22;87.08
70217;BME280;65567;55.684;37.570;2023-12-20T12:54:06;97471.63;;;7.52;84.38
70217;BME280;65567;55.684;37.570;2023-12-20T12:56:32;97474.72;;;7.32;86.29
70217;BME280;65567;55.684;37.570;2023-12-20T12:58:58;97443.47;;;7.32;84.15
70217;BME280;65567;55.684;37.570;2023-12-20T13:01:24;97484.44;;;7.55;84.04
70217;BME280;65567;55.684;37.570;2023-12-20T13:03:50;97490.63;;;7.54;84.80
70217;BME280;65567;55.684;37.570;2023-12-20T13:06:15;97473.69;;;7.34;85.46
70217;BME280;65567;55.684;37.570;2023-12-20T13:08:41;97477.75;;;7.38;85.35